Pope Air Force Base Fayetteville US
ICAO: KPOB
IATA: POB
Category: Medium
Scheduled Services: No

Elevation: 217 ft
TransAlt. 18000 ft.

Airport Communications:
FAYETTEVILLE APP/DEP:125.175
COMD POST:134.1
ATIS:132.3
CLNC DEL:27.58
GND:124.55
PMSV METRO:34.46
PTD:37.22
TWR:135.025

KPOB Zoom In..

If you have problems with the map follow the link
https://www.worldairports.se/pages/airport.php?
ICAO=KPOB

Runways:

(A) RW 05 length 7501 ft width 150 ft
---- / hdg 48

(B) RW 23 length 7501 ft width 150 ft
ILS 110.90 / hdg 228

Location; KPOB
Day. 16 / Time. 11.56 Zulu
* Altimeter: 30.03
* Temperature: 04° c. 39.2°f.
* Wind from: 280° Speed 06 kn.
Dewpoint: 02° c.
Visibility: 10 Statute Miles.
Clouds: Clear (automated report).

KPOB 161156Z AUTO 28006KT 10SM CLR 04/02 A3003 RMK AO2 SLP173 T00360020 10067 20035 52024 $


Wind From 280°
Speed 06 kn.

 
 
jpsmedia.com for Web Design worldairports.se 2018   terms of use